createdAt,value
2023-10-09T00:00:34.518Z,59.45
2023-10-09T00:03:02.758Z,59.31
2023-10-09T00:05:47.254Z,59.60
2023-10-09T00:08:20.799Z,59.22
2023-10-09T00:10:58.666Z,58.85
2023-10-09T00:13:36.108Z,56.77
2023-10-09T00:16:14.895Z,57.32
2023-10-09T00:18:48.177Z,57.28
2023-10-09T00:21:23.170Z,56.77
2023-10-09T00:23:55.395Z,55.83
2023-10-09T00:26:23.992Z,56.38
2023-10-09T00:28:52.954Z,56.72
2023-10-09T00:31:35.072Z,56.41
2023-10-09T00:34:16.540Z,56.40
2023-10-09T00:36:52.286Z,57.16
2023-10-09T00:39:35.012Z,57.56
2023-10-09T00:42:03.855Z,58.73
2023-10-09T00:44:39.107Z,59.22
2023-10-09T00:47:22.362Z,59.13
2023-10-09T00:50:01.979Z,59.48
2023-10-09T00:52:44.517Z,59.88
2023-10-09T00:55:21.972Z,59.50
2023-10-09T00:58:00.629Z,58.69
2023-10-09T01:00:48.754Z,59.26
2023-10-09T01:03:18.311Z,58.64
2023-10-09T01:05:59.778Z,58.47
2023-10-09T01:08:33.765Z,58.22
2023-10-09T01:11:11.068Z,58.10
2023-10-09T01:13:42.689Z,58.65
2023-10-09T01:16:17.195Z,58.97
2023-10-09T01:18:52.585Z,58.83
2023-10-09T01:21:26.360Z,59.32
2023-10-09T01:24:04.474Z,59.29
2023-10-09T01:26:56.476Z,59.35
2023-10-09T01:29:28.849Z,59.61
2023-10-09T01:31:57.863Z,60.17
2023-10-09T01:34:40.212Z,60.11
2023-10-09T01:37:18.459Z,60.44
2023-10-09T01:40:00.850Z,60.16
2023-10-09T01:42:31.893Z,60.29
2023-10-09T01:45:00.029Z,60.19
2023-10-09T01:47:33.185Z,60.71
2023-10-09T01:50:06.300Z,61.03
2023-10-09T01:52:37.247Z,61.17
2023-10-09T01:55:28.360Z,60.41
2023-10-09T01:57:59.688Z,60.66
2023-10-09T02:00:30.516Z,60.40
2023-10-09T02:03:04.282Z,60.29
2023-10-09T02:05:34.920Z,61.42
2023-10-09T02:08:05.164Z,61.97
2023-10-09T02:10:33.909Z,62.29
2023-10-09T02:13:12.747Z,61.77
2023-10-09T02:15:47.150Z,62.30
2023-10-09T02:18:23.473Z,62.49
2023-10-09T02:21:01.435Z,62.66
2023-10-09T02:23:46.958Z,62.65
2023-10-09T02:26:26.876Z,62.56
2023-10-09T02:29:05.768Z,62.89
2023-10-09T02:31:45.446Z,63.45
2023-10-09T02:34:16.836Z,63.61
2023-10-09T02:36:50.111Z,63.16
2023-10-09T02:39:35.999Z,62.84
2023-10-09T02:42:20.636Z,62.85
2023-10-09T02:44:51.027Z,63.52
2023-10-09T02:47:30.924Z,63.89
2023-10-09T02:50:08.232Z,63.90
2023-10-09T02:52:41.866Z,64.01
2023-10-09T02:55:23.518Z,64.37
2023-10-09T02:58:06.157Z,63.85
2023-10-09T03:00:37.375Z,63.19
2023-10-09T03:03:08.941Z,62.24
2023-10-09T03:05:39.632Z,62.39
2023-10-09T03:08:09.974Z,61.75
2023-10-09T03:10:39.939Z,61.40
2023-10-09T03:13:07.583Z,62.01
2023-10-09T03:15:37.213Z,61.99
2023-10-09T03:18:06.120Z,61.65
2023-10-09T03:20:33.841Z,61.78
2023-10-09T03:23:02.533Z,62.02
2023-10-09T03:25:31.761Z,61.94
2023-10-09T03:28:00.030Z,61.84
2023-10-09T03:30:27.601Z,62.14
2023-10-09T03:32:55.958Z,62.42
2023-10-09T03:35:28.256Z,62.61
2023-10-09T03:37:58.536Z,62.67
2023-10-09T03:40:26.344Z,62.71
2023-10-09T03:42:54.246Z,62.11
2023-10-09T03:45:29.215Z,62.47
2023-10-09T03:48:10.279Z,62.61
2023-10-09T03:50:39.007Z,62.40
2023-10-09T03:53:12.477Z,62.37
2023-10-09T03:55:41.313Z,62.50
2023-10-09T03:58:10.038Z,62.96
2023-10-09T04:00:47.615Z,63.24
2023-10-09T04:03:17.057Z,63.36
2023-10-09T04:05:45.234Z,64.48
2023-10-09T04:08:30.760Z,64.76
2023-10-09T04:11:05.550Z,65.54
2023-10-09T04:13:36.347Z,65.46
2023-10-09T04:16:26.911Z,64.88
2023-10-09T04:18:57.678Z,65.80
2023-10-09T04:21:38.251Z,65.00
2023-10-09T04:24:10.634Z,64.74
2023-10-09T04:26:46.316Z,64.53
2023-10-09T04:29:28.461Z,64.84
2023-10-09T04:31:58.013Z,65.16
2023-10-09T04:34:45.920Z,65.51
2023-10-09T04:37:16.786Z,65.61
2023-10-09T04:40:02.160Z,65.71
2023-10-09T04:42:39.009Z,66.16
2023-10-09T04:45:07.625Z,65.58
2023-10-09T04:47:59.721Z,71.24
2023-10-09T04:50:30.484Z,67.68
2023-10-09T04:53:14.632Z,63.19
2023-10-09T04:55:55.326Z,62.99
2023-10-09T04:58:27.148Z,63.44
2023-10-09T05:01:01.277Z,64.06
2023-10-09T05:03:30.830Z,64.50
2023-10-09T05:06:21.300Z,64.65
2023-10-09T05:08:50.713Z,65.05
2023-10-09T05:11:37.162Z,65.37
2023-10-09T05:14:14.261Z,65.31
2023-10-09T05:16:58.080Z,65.71
2023-10-09T05:19:43.021Z,65.90
2023-10-09T05:22:31.166Z,66.05
2023-10-09T05:25:00.094Z,66.25
2023-10-09T05:27:46.134Z,65.81
2023-10-09T05:30:25.745Z,66.26
2023-10-09T05:32:59.594Z,66.79
2023-10-09T05:35:48.197Z,66.00
2023-10-09T05:38:25.059Z,65.74
2023-10-09T05:40:55.011Z,66.13
2023-10-09T05:43:41.379Z,66.32
2023-10-09T05:46:10.550Z,65.93
2023-10-09T05:48:40.945Z,66.25
2023-10-09T05:51:13.851Z,66.83
2023-10-09T05:53:47.373Z,66.57
2023-10-09T05:56:33.625Z,67.25
2023-10-09T05:59:30.504Z,67.56
2023-10-09T06:02:17.198Z,67.74
2023-10-09T06:04:55.693Z,68.30
2023-10-09T06:07:25.823Z,68.00
2023-10-09T06:09:56.665Z,67.71
2023-10-09T06:12:35.414Z,66.65
2023-10-09T06:15:39.508Z,66.84
2023-10-09T06:18:25.739Z,66.85
2023-10-09T06:21:32.067Z,69.55
2023-10-09T06:24:12.006Z,67.73
2023-10-09T06:26:42.578Z,65.10
2023-10-09T06:29:15.987Z,65.48
2023-10-09T06:32:00.131Z,63.33
2023-10-09T06:34:36.451Z,62.16
2023-10-09T06:37:18.780Z,64.16
2023-10-09T06:40:12.463Z,63.39
2023-10-09T06:42:40.332Z,61.36
2023-10-09T06:45:15.885Z,59.79
2023-10-09T06:47:57.512Z,59.59
2023-10-09T06:50:26.071Z,57.25
2023-10-09T06:53:12.938Z,57.58
2023-10-09T06:55:49.847Z,57.70
2023-10-09T06:58:29.719Z,56.87
2023-10-09T07:01:36.185Z,56.96
2023-10-09T07:04:22.879Z,57.90
2023-10-09T07:06:52.476Z,56.70
2023-10-09T07:09:21.020Z,55.49
2023-10-09T07:11:53.278Z,54.81
2023-10-09T07:14:32.356Z,55.33
2023-10-09T07:17:23.429Z,54.05
2023-10-09T07:19:52.992Z,52.93
2023-10-09T07:22:21.332Z,51.98
2023-10-09T07:24:58.608Z,52.54
2023-10-09T07:27:50.890Z,51.55
2023-10-09T07:30:32.967Z,52.78
2023-10-09T07:33:12.924Z,50.63
2023-10-09T07:35:55.443Z,51.90
2023-10-09T07:38:29.684Z,49.12
2023-10-09T07:41:06.961Z,49.28
2023-10-09T07:43:42.374Z,49.11
2023-10-09T07:46:31.076Z,49.75
2023-10-09T07:49:09.679Z,48.46
2023-10-09T07:51:38.617Z,47.71
2023-10-09T07:54:09.533Z,48.36
2023-10-09T07:56:47.897Z,47.34
2023-10-09T07:59:19.846Z,47.33
2023-10-09T08:02:00.435Z,49.42
2023-10-09T08:05:00.793Z,48.00
2023-10-09T08:08:05.853Z,48.25
2023-10-09T08:10:23.044Z,47.84
2023-10-09T08:12:50.724Z,48.44
2023-10-09T08:15:22.661Z,48.20
2023-10-09T08:18:05.130Z,46.43
2023-10-09T08:20:51.754Z,45.66
2023-10-09T08:23:34.890Z,45.51
2023-10-09T08:26:17.467Z,45.88
2023-10-09T08:28:46.936Z,44.72
2023-10-09T08:31:34.415Z,42.65
2023-10-09T08:36:37.998Z,43.21
2023-10-09T08:39:18.661Z,43.97
2023-10-09T08:41:46.229Z,43.52
2023-10-09T08:44:16.424Z,42.89
2023-10-09T08:46:45.962Z,41.31
2023-10-09T08:49:15.668Z,41.20
2023-10-09T08:51:43.695Z,41.80
2023-10-09T08:54:13.195Z,40.19
2023-10-09T08:56:50.869Z,39.13
2023-10-09T08:59:20.702Z,37.86
2023-10-09T09:01:53.690Z,36.70
2023-10-09T09:04:42.292Z,36.58
2023-10-09T09:07:27.921Z,36.96
2023-10-09T09:10:05.029Z,36.74
2023-10-09T09:12:38.920Z,35.82
2023-10-09T09:15:20.065Z,36.04
2023-10-09T09:17:50.711Z,35.78
2023-10-09T09:20:41.390Z,34.34
2023-10-09T09:23:13.565Z,34.08
2023-10-09T09:25:46.345Z,35.25
2023-10-09T09:28:20.773Z,36.05
2023-10-09T09:30:57.636Z,36.25
2023-10-09T09:33:43.711Z,37.47
2023-10-09T09:36:13.983Z,37.91
2023-10-09T09:38:51.480Z,37.25
2023-10-09T09:41:26.260Z,38.58
2023-10-09T09:44:02.184Z,38.48
2023-10-09T09:46:36.431Z,38.74
2023-10-09T09:49:07.096Z,38.44
2023-10-09T09:51:35.578Z,37.59
2023-10-09T09:54:03.905Z,37.71
2023-10-09T09:56:34.819Z,36.40
2023-10-09T09:59:07.826Z,35.57
2023-10-09T10:01:41.086Z,35.94
2023-10-09T10:04:14.954Z,35.93
2023-10-09T10:06:46.450Z,35.18
2023-10-09T10:09:40.579Z,36.01
2023-10-09T10:12:12.601Z,35.98
2023-10-09T10:15:15.479Z,34.86
2023-10-09T10:18:01.912Z,35.76
2023-10-09T10:20:32.588Z,35.95
2023-10-09T10:23:20.837Z,36.31
2023-10-09T10:25:51.724Z,36.49
2023-10-09T10:28:40.303Z,36.45
2023-10-09T10:31:10.954Z,36.20
2023-10-09T10:34:08.656Z,36.57
2023-10-09T10:36:36.711Z,36.81
2023-10-09T10:39:06.247Z,36.37
2023-10-09T10:41:52.305Z,36.62
2023-10-09T10:44:43.090Z,37.74
2023-10-09T10:47:26.205Z,36.94
2023-10-09T10:50:21.895Z,37.44
2023-10-09T10:52:58.724Z,38.02
2023-10-09T10:55:32.869Z,37.44
2023-10-09T10:58:14.976Z,37.54
2023-10-09T11:00:58.076Z,37.35
2023-10-09T11:03:45.929Z,37.83
2023-10-09T11:06:16.789Z,37.83
2023-10-09T11:08:56.266Z,37.41
2023-10-09T11:11:45.193Z,37.13
2023-10-09T11:14:25.589Z,36.62
2023-10-09T11:16:59.548Z,38.31
2023-10-09T11:19:33.893Z,37.53
2023-10-09T11:22:09.051Z,37.91
2023-10-09T11:24:36.948Z,37.66
2023-10-09T11:27:07.841Z,37.20
2023-10-09T11:29:46.172Z,36.61
2023-10-09T11:32:20.997Z,36.69
2023-10-09T11:34:53.495Z,36.92
2023-10-09T11:37:32.517Z,36.19
2023-10-09T11:40:01.841Z,36.79
2023-10-09T11:42:50.208Z,37.53
2023-10-09T11:45:26.313Z,38.26
2023-10-09T11:48:01.461Z,38.61
2023-10-09T11:50:51.911Z,38.28
2023-10-09T11:53:23.597Z,38.19
2023-10-09T11:55:54.505Z,38.64
2023-10-09T11:58:26.117Z,38.05
2023-10-09T12:01:07.608Z,38.42
2023-10-09T12:03:35.604Z,38.16
2023-10-09T12:06:08.257Z,37.49
2023-10-09T12:08:36.238Z,37.75
2023-10-09T12:11:09.545Z,37.68
2023-10-09T12:13:43.620Z,38.01
2023-10-09T12:16:11.601Z,37.48
2023-10-09T12:18:40.782Z,37.79
2023-10-09T12:21:08.843Z,38.02
2023-10-09T12:23:39.178Z,37.88
2023-10-09T12:26:15.576Z,38.46
2023-10-09T12:28:47.964Z,37.99
2023-10-09T12:31:17.225Z,38.03
2023-10-09T12:33:44.869Z,38.68
2023-10-09T12:36:21.161Z,38.20
2023-10-09T12:39:00.205Z,38.34
2023-10-09T12:41:29.374Z,38.57
2023-10-09T12:44:01.060Z,38.87
2023-10-09T12:46:29.063Z,39.06
2023-10-09T12:48:56.958Z,40.03
2023-10-09T12:51:31.531Z,40.13
2023-10-09T12:54:00.135Z,40.03
2023-10-09T12:56:48.879Z,39.52
2023-10-09T12:59:16.862Z,40.20
2023-10-09T13:01:45.138Z,39.43
2023-10-09T13:04:16.572Z,39.66
2023-10-09T13:06:46.080Z,40.20
2023-10-09T13:09:15.716Z,40.84
2023-10-09T13:11:45.153Z,40.94
2023-10-09T13:14:18.255Z,40.79
2023-10-09T13:16:48.523Z,41.13
2023-10-09T13:19:16.166Z,41.94
2023-10-09T13:21:44.052Z,42.05
2023-10-09T13:24:17.257Z,42.57
2023-10-09T13:26:47.595Z,42.43
2023-10-09T13:29:23.621Z,42.39
2023-10-09T13:31:54.212Z,42.07
2023-10-09T13:34:22.184Z,41.75
2023-10-09T13:36:56.737Z,41.26
2023-10-09T13:39:25.817Z,40.99
2023-10-09T13:42:01.151Z,41.15
2023-10-09T13:44:30.784Z,41.37
2023-10-09T13:47:00.460Z,42.06
2023-10-09T13:49:31.866Z,42.24
2023-10-09T13:52:07.818Z,43.01
2023-10-09T13:54:35.428Z,43.23
2023-10-09T13:57:08.731Z,44.18
2023-10-09T13:59:37.595Z,44.22
2023-10-09T14:02:18.208Z,44.69
2023-10-09T14:04:48.504Z,44.56
2023-10-09T14:07:21.603Z,44.68
2023-10-09T14:10:08.906Z,44.51
2023-10-09T14:12:41.349Z,44.35
2023-10-09T14:15:18.127Z,44.81
2023-10-09T14:17:48.026Z,45.52
2023-10-09T14:20:32.310Z,45.82
2023-10-09T14:23:08.149Z,45.42
2023-10-09T14:25:39.974Z,46.31
2023-10-09T14:28:11.290Z,47.27
2023-10-09T14:30:46.127Z,46.86
2023-10-09T14:33:13.896Z,47.05
2023-10-09T14:35:43.182Z,47.10
2023-10-09T14:38:13.861Z,47.50
2023-10-09T14:40:46.114Z,47.74
2023-10-09T14:43:28.896Z,48.89
2023-10-09T14:45:56.880Z,49.51
2023-10-09T14:48:27.257Z,48.62
2023-10-09T14:50:54.906Z,49.40
2023-10-09T14:53:23.544Z,49.69
2023-10-09T14:55:58.135Z,50.03
2023-10-09T14:58:26.621Z,48.81
2023-10-09T15:00:55.353Z,48.87
2023-10-09T15:03:24.066Z,49.23
2023-10-09T15:05:52.045Z,49.39
2023-10-09T15:08:19.671Z,49.28
2023-10-09T15:10:49.064Z,48.69
2023-10-09T15:13:19.921Z,49.52
2023-10-09T15:15:52.390Z,49.65
2023-10-09T15:18:22.725Z,49.81
2023-10-09T15:20:50.789Z,50.14
2023-10-09T15:23:21.096Z,50.06
2023-10-09T15:25:51.475Z,50.29
2023-10-09T15:28:23.823Z,50.65
2023-10-09T15:30:51.858Z,51.01
2023-10-09T15:33:19.955Z,51.15
2023-10-09T15:35:48.022Z,51.23
2023-10-09T15:38:16.980Z,51.16
2023-10-09T15:40:45.369Z,51.27
2023-10-09T15:43:16.621Z,51.32
2023-10-09T15:45:51.360Z,51.61
2023-10-09T15:48:22.930Z,51.56
2023-10-09T15:50:52.962Z,51.72
2023-10-09T15:53:20.878Z,51.88
2023-10-09T15:55:53.276Z,51.72
2023-10-09T15:58:21.535Z,52.73
2023-10-09T16:00:49.074Z,52.74
2023-10-09T16:03:17.240Z,52.82
2023-10-09T16:05:44.836Z,53.00
2023-10-09T16:08:12.459Z,53.94
2023-10-09T16:10:40.407Z,53.95
2023-10-09T16:13:14.269Z,53.86
2023-10-09T16:15:46.345Z,54.13
2023-10-09T16:18:13.984Z,54.30
2023-10-09T16:20:44.548Z,55.30
2023-10-09T16:23:13.910Z,55.38
2023-10-09T16:25:42.162Z,55.11
2023-10-09T16:28:10.046Z,55.24
2023-10-09T16:30:37.931Z,55.41
2023-10-09T16:33:10.229Z,55.74
2023-10-09T16:35:42.569Z,56.14
2023-10-09T16:38:14.086Z,56.28
2023-10-09T16:40:48.200Z,56.96
2023-10-09T16:43:18.728Z,56.57
2023-10-09T16:45:46.599Z,56.39
2023-10-09T16:48:16.591Z,56.53
2023-10-09T16:50:48.237Z,56.77
2023-10-09T16:53:18.111Z,56.65
2023-10-09T16:55:46.462Z,56.94
2023-10-09T16:58:16.606Z,56.21
2023-10-09T17:00:47.525Z,57.16
2023-10-09T17:03:16.160Z,57.49
2023-10-09T17:06:00.237Z,57.71
2023-10-09T17:08:31.060Z,58.04
2023-10-09T17:10:58.864Z,59.86
2023-10-09T17:13:27.554Z,60.03
2023-10-09T17:15:55.608Z,61.09
2023-10-09T17:18:26.284Z,60.82
2023-10-09T17:20:55.848Z,61.11
2023-10-09T17:23:24.874Z,61.52
2023-10-09T17:25:59.430Z,61.71
2023-10-09T17:28:27.801Z,62.00
2023-10-09T17:31:01.643Z,62.73
2023-10-09T17:33:29.996Z,62.40
2023-10-09T17:36:00.684Z,63.19
2023-10-09T17:38:31.471Z,62.50
2023-10-09T17:41:00.697Z,63.28
2023-10-09T17:43:28.332Z,63.87
2023-10-09T17:45:56.034Z,62.73
2023-10-09T17:48:25.059Z,62.30
2023-10-09T17:50:54.134Z,60.99
2023-10-09T17:53:21.757Z,62.07
2023-10-09T17:55:53.812Z,60.43
2023-10-09T17:58:24.915Z,59.77
2023-10-09T18:00:59.383Z,60.10
2023-10-09T18:03:29.662Z,61.17
2023-10-09T18:05:58.022Z,61.88
2023-10-09T18:08:28.311Z,62.36
2023-10-09T18:10:57.721Z,62.86
2023-10-09T18:13:28.656Z,63.48
2023-10-09T18:16:22.721Z,64.04
2023-10-09T18:18:54.225Z,64.07
2023-10-09T18:21:22.185Z,64.32
2023-10-09T18:23:50.065Z,64.98
2023-10-09T18:26:19.955Z,65.13
2023-10-09T18:28:49.473Z,64.62
2023-10-09T18:31:17.867Z,65.11
2023-10-09T18:33:47.203Z,65.14
2023-10-09T18:36:15.103Z,64.82
2023-10-09T18:38:46.086Z,65.70
2023-10-09T18:41:14.273Z,66.07
2023-10-09T18:43:43.391Z,65.32
2023-10-09T18:46:12.832Z,66.40
2023-10-09T18:48:41.132Z,65.64
2023-10-09T18:51:15.444Z,65.67
2023-10-09T18:53:44.611Z,65.66
2023-10-09T18:56:16.144Z,66.35
2023-10-09T18:58:44.425Z,66.31
2023-10-09T19:01:15.611Z,66.64
2023-10-09T19:03:48.008Z,66.16
2023-10-09T19:06:18.906Z,65.74
2023-10-09T19:08:49.197Z,66.43
2023-10-09T19:11:21.895Z,66.88
2023-10-09T19:13:50.839Z,68.11
2023-10-09T19:16:19.042Z,67.95
2023-10-09T19:18:46.800Z,68.44
2023-10-09T19:21:15.722Z,69.33
2023-10-09T19:23:47.808Z,69.93
2023-10-09T19:26:16.229Z,70.06
2023-10-09T19:28:45.588Z,70.69
2023-10-09T19:31:17.113Z,70.81
2023-10-09T19:33:45.587Z,71.48
2023-10-09T19:36:15.758Z,72.02
2023-10-09T19:38:44.906Z,71.71
2023-10-09T19:41:13.712Z,71.40
2023-10-09T19:43:41.547Z,71.49
2023-10-09T19:46:09.352Z,71.18
2023-10-09T19:48:37.413Z,70.88
2023-10-09T19:51:06.223Z,71.36
2023-10-09T19:53:37.813Z,70.78
2023-10-09T19:56:12.294Z,70.91
2023-10-09T19:58:43.847Z,71.46
2023-10-09T20:01:14.772Z,71.77
2023-10-09T20:03:45.588Z,71.72
2023-10-09T20:06:16.994Z,71.83
2023-10-09T20:08:44.929Z,71.80
2023-10-09T20:11:14.089Z,71.76
2023-10-09T20:13:45.936Z,71.38
2023-10-09T20:16:13.983Z,72.21
2023-10-09T20:18:44.015Z,72.95
2023-10-09T20:21:12.968Z,71.73
2023-10-09T20:23:42.216Z,72.01
2023-10-09T20:26:16.422Z,71.83
2023-10-09T20:28:46.896Z,71.67
2023-10-09T20:31:15.864Z,72.00
2023-10-09T20:33:44.104Z,71.84
2023-10-09T20:36:32.233Z,72.35
2023-10-09T20:38:59.893Z,71.63
2023-10-09T20:41:29.734Z,71.37
2023-10-09T20:43:57.430Z,71.35
2023-10-09T20:46:25.618Z,71.56
2023-10-09T20:48:53.710Z,72.27
2023-10-09T20:51:21.241Z,72.44
2023-10-09T20:53:48.840Z,72.99
2023-10-09T20:56:16.712Z,72.70
2023-10-09T20:58:44.972Z,72.11
2023-10-09T21:01:17.093Z,72.00
2023-10-09T21:03:47.954Z,72.23
2023-10-09T21:06:16.717Z,71.81
2023-10-09T21:08:45.884Z,72.60
2023-10-09T21:11:14.222Z,72.87
2023-10-09T21:13:41.894Z,73.15
2023-10-09T21:16:15.829Z,72.81
2023-10-09T21:18:44.994Z,72.91
2023-10-09T21:21:14.816Z,73.07
2023-10-09T21:23:46.195Z,72.78
2023-10-09T21:26:23.581Z,72.89
2023-10-09T21:28:53.372Z,73.26
2023-10-09T21:31:26.345Z,72.91
2023-10-09T21:33:54.145Z,72.92
2023-10-09T21:36:21.985Z,73.09
2023-10-09T21:38:49.718Z,73.33
2023-10-09T21:41:19.088Z,72.75
2023-10-09T21:43:47.816Z,72.53
2023-10-09T21:46:16.300Z,72.48
2023-10-09T21:48:44.544Z,72.71
2023-10-09T21:51:14.595Z,72.84
2023-10-09T21:53:42.160Z,73.81
2023-10-09T21:56:11.877Z,74.98
2023-10-09T21:58:39.861Z,75.69
2023-10-09T22:01:10.427Z,76.05
2023-10-09T22:03:41.308Z,76.67
2023-10-09T22:06:11.363Z,76.93
2023-10-09T22:08:39.516Z,77.05
2023-10-09T22:11:08.798Z,76.85
2023-10-09T22:13:36.911Z,76.90
2023-10-09T22:16:06.281Z,77.21
2023-10-09T22:18:41.040Z,77.43
2023-10-09T22:21:12.572Z,76.90
2023-10-09T22:23:47.551Z,76.59
2023-10-09T22:26:16.465Z,76.81
2023-10-09T22:28:47.420Z,76.39
2023-10-09T22:31:17.121Z,76.46
2023-10-09T22:33:52.280Z,76.34
2023-10-09T22:36:31.172Z,76.33
2023-10-09T22:39:06.701Z,76.08
2023-10-09T22:41:35.977Z,76.19
2023-10-09T22:44:11.696Z,76.67
2023-10-09T22:46:40.074Z,76.93
2023-10-09T22:49:17.973Z,76.69
2023-10-09T22:51:52.328Z,76.58
2023-10-09T22:54:25.043Z,76.34
2023-10-09T22:56:54.196Z,75.66
2023-10-09T22:59:22.321Z,74.73
2023-10-09T23:01:56.636Z,73.80
2023-10-09T23:04:38.485Z,73.80
2023-10-09T23:07:17.050Z,73.41
2023-10-09T23:09:52.414Z,73.23
2023-10-09T23:12:36.943Z,73.17
2023-10-09T23:15:10.942Z,73.11
2023-10-09T23:17:45.304Z,72.70
2023-10-09T23:20:23.827Z,72.50
2023-10-09T23:22:52.933Z,73.30
2023-10-09T23:25:31.445Z,73.47
2023-10-09T23:28:28.567Z,73.44
2023-10-09T23:30:58.385Z,73.37
2023-10-09T23:33:26.305Z,73.50
2023-10-09T23:36:05.148Z,73.38
2023-10-09T23:38:36.064Z,73.53
2023-10-09T23:41:13.272Z,73.54
2023-10-09T23:43:47.655Z,74.01
2023-10-09T23:46:19.185Z,74.01
2023-10-09T23:48:50.061Z,74.66
2023-10-09T23:51:20.308Z,75.68
2023-10-09T23:53:53.904Z,75.44
2023-10-09T23:56:57.282Z,75.09
2023-10-09T23:59:39.452Z,75.63
